Time;durP1;ratioP1;P1;durP2;ratioP2;P2;SDS_P1;SDS_P2;PMS_P1;PMS_P2;Temp;Humidity;BMP_temperature;BMP_pressure;BME280_temperature;BME280_humidity;BME280_pressure;Samples;Min_cycle;Max_cycle;Signal;HPM_P1;HPM_P2
2021/04/03 03:34:34;;;;;;;13.60;6.75;;;4.90;90.50;;;;;;4982216;28;20230;-67
2021/04/03 03:37:01;;;;;;;10.07;6.32;;;4.90;90.50;;;;;;4988828;28;20738;-66
2021/04/03 03:39:28;;;;;;;9.73;5.10;;;4.90;90.60;;;;;;4988343;28;20246;-66
2021/04/03 03:41:57;;;;;;;11.63;6.07;;;4.80;90.50;;;;;;4984649;28;20211;-66
2021/04/03 03:44:24;;;;;;;11.75;5.70;;;4.80;90.50;;;;;;4987587;28;20771;-66
2021/04/03 03:46:50;;;;;;;8.57;6.05;;;4.70;90.60;;;;;;4985948;28;20262;-66
2021/04/03 03:49:17;;;;;;;10.40;6.38;;;4.60;90.90;;;;;;4987845;28;20214;-66
2021/04/03 03:51:44;;;;;;;6.45;5.78;;;4.60;91.10;;;;;;4986310;28;20242;-66
2021/04/03 03:54:11;;;;;;;7.35;5.95;;;4.50;91.30;;;;;;4987855;28;20234;-66
2021/04/03 03:56:37;;;;;;;7.55;5.57;;;4.50;91.40;;;;;;4987818;28;20203;-66
2021/04/03 03:59:04;;;;;;;5.28;4.60;;;4.50;91.20;;;;;;4988060;28;20253;-66
2021/04/03 04:01:30;;;;;;;8.95;5.57;;;4.50;91.10;;;;;;4987810;28;20292;-66
2021/04/03 04:03:57;;;;;;;6.40;5.20;;;4.40;91.00;;;;;;4987135;28;20212;-67
2021/04/03 04:06:23;;;;;;;9.02;5.47;;;4.40;91.00;;;;;;4987967;28;20593;-66
2021/04/03 04:08:50;;;;;;;6.18;4.85;;;4.40;91.00;;;;;;4988132;28;20210;-66
2021/04/03 04:11:17;;;;;;;7.38;5.57;;;4.40;90.90;;;;;;4987851;28;20637;-67
2021/04/03 04:13:43;;;;;;;7.32;5.18;;;4.50;91.00;;;;;;4986771;28;20290;-67
2021/04/03 04:16:10;;;;;;;6.72;4.65;;;4.50;90.80;;;;;;4986543;28;20253;-66
2021/04/03 04:18:36;;;;;;;5.38;4.07;;;4.60;90.40;;;;;;4987711;28;20210;-66
2021/04/03 04:21:02;;;;;;;7.65;4.93;;;4.60;90.50;;;;;;4988378;28;20314;-66
2021/04/03 04:23:29;;;;;;;5.28;4.65;;;4.50;90.40;;;;;;4987021;28;20270;-66
2021/04/03 04:25:56;;;;;;;10.80;5.38;;;4.50;90.40;;;;;;4986958;28;20269;-66
2021/04/03 04:28:23;;;;;;;8.05;5.60;;;4.30;90.60;;;;;;4987509;28;20227;-66
2021/04/03 04:30:49;;;;;;;6.57;5.05;;;4.20;90.90;;;;;;4987231;28;20204;-66
2021/04/03 04:33:15;;;;;;;5.43;4.80;;;4.20;91.20;;;;;;4987665;28;20232;-66
2021/04/03 04:35:42;;;;;;;7.65;4.60;;;4.20;91.10;;;;;;4986527;28;20215;-66
2021/04/03 04:38:08;;;;;;;5.63;5.00;;;4.20;91.20;;;;;;4981909;28;20199;-66
2021/04/03 04:40:34;;;;;;;5.75;5.15;;;4.20;91.20;;;;;;4987185;28;20216;-68
2021/04/03 04:43:02;;;;;;;8.73;5.57;;;4.10;91.40;;;;;;4987722;28;20274;-66
2021/04/03 04:45:28;;;;;;;6.32;4.40;;;4.10;91.40;;;;;;4985356;28;20781;-67
2021/04/03 04:47:54;;;;;;;10.48;5.00;;;4.10;91.40;;;;;;4980933;28;20212;-66
2021/04/03 04:50:21;;;;;;;7.13;5.57;;;4.10;91.40;;;;;;4986305;28;20208;-67
2021/04/03 04:52:48;;;;;;;6.63;4.60;;;4.20;91.20;;;;;;4987682;28;20236;-66
2021/04/03 04:55:15;;;;;;;5.22;4.72;;;4.30;91.30;;;;;;4986200;28;20199;-66
2021/04/03 04:57:41;;;;;;;5.53;4.07;;;4.40;91.10;;;;;;4986161;28;20577;-66
2021/04/03 05:00:10;;;;;;;6.40;4.18;;;4.40;91.10;;;;;;4987151;28;20214;-67
2021/04/03 05:02:36;;;;;;;6.38;5.25;;;4.60;90.90;;;;;;4984882;28;20208;-67
2021/04/03 05:05:03;;;;;;;4.53;4.13;;;4.60;90.70;;;;;;4986909;28;20238;-67
2021/04/03 05:07:30;;;;;;;9.07;4.95;;;4.60;90.80;;;;;;4986393;28;20204;-67
2021/04/03 05:09:56;;;;;;;4.85;4.35;;;4.60;91.00;;;;;;4985356;28;20543;-67
2021/04/03 05:12:22;;;;;;;4.75;3.95;;;4.70;90.90;;;;;;4983065;28;20274;-68
2021/04/03 05:14:49;;;;;;;5.32;4.25;;;4.70;91.00;;;;;;4985604;28;20207;-67
2021/04/03 05:17:16;;;;;;;6.65;4.20;;;4.70;90.80;;;;;;4987209;28;20207;-67
2021/04/03 05:19:42;;;;;;;5.65;4.20;;;4.80;90.80;;;;;;4986414;28;20956;-67
2021/04/03 05:22:08;;;;;;;5.22;4.72;;;4.80;90.80;;;;;;4986333;28;20211;-67
2021/04/03 05:24:35;;;;;;;6.30;4.05;;;4.80;90.80;;;;;;4985424;28;20737;-67
2021/04/03 05:27:01;;;;;;;7.22;4.22;;;4.80;90.80;;;;;;4986782;28;20199;-67
2021/04/03 05:29:28;;;;;;;6.20;4.75;;;4.80;90.60;;;;;;4985440;28;20748;-67
2021/04/03 05:31:54;;;;;;;6.60;4.57;;;4.90;90.50;;;;;;4984010;28;20232;-67
2021/04/03 05:34:21;;;;;;;5.88;4.88;;;4.90;90.70;;;;;;4985908;28;20212;-67
2021/04/03 05:36:47;;;;;;;6.13;4.38;;;5.00;90.70;;;;;;4986173;28;20208;-66
2021/04/03 05:39:14;;;;;;;4.85;4.28;;;5.00;90.40;;;;;;4980806;28;20648;-67
2021/04/03 05:41:40;;;;;;;5.55;4.57;;;5.00;90.70;;;;;;4986298;28;20681;-67
2021/04/03 05:44:10;;;;;;;5.63;5.00;;;5.10;90.60;;;;;;4984842;28;21051;-67
2021/04/03 05:46:39;;;;;;;4.47;3.92;;;5.10;90.50;;;;;;4986879;28;20909;-66
2021/04/03 05:49:06;;;;;;;5.78;4.32;;;5.20;90.30;;;;;;4980442;28;20824;-67
2021/04/03 05:51:34;;;;;;;11.52;6.25;;;5.20;90.40;;;;;;4987428;28;20336;-67
2021/04/03 05:54:01;;;;;;;9.23;4.88;;;5.30;90.10;;;;;;4984497;28;20544;-68
2021/04/03 05:56:28;;;;;;;7.85;5.00;;;5.50;90.30;;;;;;4980356;28;20865;-67
2021/04/03 05:58:56;;;;;;;5.07;4.18;;;5.60;89.60;;;;;;4980793;28;20212;-67
2021/04/03 06:01:22;;;;;;;4.72;4.25;;;5.80;89.80;;;;;;4985579;28;20695;-67
2021/04/03 06:03:49;;;;;;;4.60;3.95;;;5.80;89.20;;;;;;4978547;28;20235;-67
2021/04/03 06:06:16;;;;;;;6.85;4.47;;;6.00;88.70;;;;;;4985194;28;20200;-67
2021/04/03 06:08:43;;;;;;;4.40;4.00;;;6.10;88.00;;;;;;4985250;28;20211;-67
2021/04/03 06:11:11;;;;;;;8.50;5.25;;;6.20;87.10;;;;;;4985363;28;20282;-67
2021/04/03 06:13:38;;;;;;;4.82;4.03;;;6.50;87.50;;;;;;4985506;28;20322;-67
2021/04/03 06:16:25;;;;;;;5.60;4.82;;;6.50;85.90;;;;;;4977921;28;20262;-67
2021/04/03 06:19:23;;;;;;;6.25;4.18;;;6.90;85.60;;;;;;4985868;28;20200;-67
2021/04/03 06:21:56;;;;;;;6.63;3.97;;;7.30;84.10;;;;;;4984797;28;20203;-67
2021/04/03 06:24:26;;;;;;;5.10;4.60;;;7.70;82.10;;;;;;4983943;28;20634;-67
2021/04/03 06:26:58;;;;;;;6.40;4.75;;;7.70;81.50;;;;;;4985951;28;20204;-68
2021/04/03 06:29:28;;;;;;;4.80;4.30;;;7.50;81.60;;;;;;4983961;28;20299;-67
2021/04/03 06:31:55;;;;;;;8.00;3.55;;;7.20;83.10;;;;;;4980284;28;20700;-67
2021/04/03 06:34:31;;;;;;;4.13;3.72;;;7.10;82.10;;;;;;4984873;28;20215;-67
2021/04/03 06:36:57;;;;;;;7.78;3.90;;;7.30;82.30;;;;;;4985912;28;20711;-67
2021/04/03 06:39:25;;;;;;;5.07;4.47;;;7.60;82.20;;;;;;4986559;28;20214;-67
2021/04/03 06:41:52;;;;;;;4.63;3.45;;;8.00;80.60;;;;;;4986343;28;20262;-67
2021/04/03 06:44:18;;;;;;;4.20;3.80;;;8.50;78.60;;;;;;4981319;28;20270;-67
2021/04/03 06:46:46;;;;;;;3.50;3.20;;;8.60;77.90;;;;;;4986020;28;20203;-66
2021/04/03 06:49:14;;;;;;;5.55;4.20;;;8.50;78.70;;;;;;4986383;28;20286;-67
2021/04/03 06:51:41;;;;;;;3.78;3.47;;;8.30;78.90;;;;;;4986225;28;20208;-67
2021/04/03 06:54:08;;;;;;;4.18;3.60;;;8.40;78.60;;;;;;4985121;28;20286;-67
2021/04/03 06:56:36;;;;;;;3.42;3.17;;;8.30;78.80;;;;;;4984626;28;20263;-67
2021/04/03 06:59:05;;;;;;;4.90;4.40;;;8.20;78.30;;;;;;4985237;28;20570;-67
2021/04/03 07:01:40;;;;;;;6.28;3.95;;;8.50;79.00;;;;;;4981664;28;20290;-67
2021/04/03 07:04:10;;;;;;;4.57;3.58;;;9.20;76.90;;;;;;4985296;28;20203;-68
2021/04/03 07:06:37;;;;;;;4.45;3.55;;;9.00;75.80;;;;;;4985792;28;20792;-67
2021/04/03 07:09:05;;;;;;;7.45;4.00;;;8.90;75.30;;;;;;4986138;28;20199;-68
2021/04/03 07:11:32;;;;;;;5.88;3.25;;;8.70;75.00;;;;;;4978267;28;20208;-67
2021/04/03 07:14:00;;;;;;;4.90;3.67;;;9.20;76.10;;;;;;4975328;28;20210;-67
2021/04/03 07:16:38;;;;;;;4.40;3.67;;;9.40;74.80;;;;;;4986141;28;20560;-69
2021/04/03 07:19:05;;;;;;;4.70;3.72;;;9.60;74.00;;;;;;4982534;28;20211;-68
2021/04/03 07:21:31;;;;;;;2.97;2.75;;;10.50;71.00;;;;;;4985655;28;20196;-68
2021/04/03 07:24:00;;;;;;;3.80;2.55;;;11.30;68.70;;;;;;4985695;28;20212;-69
2021/04/03 07:26:27;;;;;;;4.78;3.47;;;11.40;66.90;;;;;;4990242;28;20210;-67
2021/04/03 07:28:53;;;;;;;4.85;2.95;;;11.60;67.30;;;;;;4991566;28;20210;-67
2021/04/03 07:31:39;;;;;;;6.63;3.30;;;11.90;66.70;;;;;;4992134;28;20219;-67
2021/04/03 07:34:06;;;;;;;2.92;2.70;;;11.80;66.30;;;;;;4991094;28;20302;-66
2021/04/03 07:36:34;;;;;;;3.42;3.13;;;11.60;65.10;;;;;;4988488;28;20216;-67
2021/04/03 07:39:01;;;;;;;5.93;3.55;;;11.20;64.90;;;;;;4995437;28;20278;-67
2021/04/03 07:41:36;;;;;;;3.95;3.35;;;10.60;66.00;;;;;;4989674;28;20207;-66
2021/04/03 07:44:13;;;;;;;4.28;3.78;;;10.10;68.10;;;;;;4988184;28;20214;-66
2021/04/03 07:46:45;;;;;;;3.38;2.88;;;9.60;71.70;;;;;;4984402;28;20247;-66
2021/04/03 07:49:30;;;;;;;5.10;4.20;;;9.70;71.60;;;;;;4988044;28;20559;-66
2021/04/03 07:51:56;;;;;;;4.70;3.83;;;9.70;71.40;;;;;;4988996;28;20232;-66
2021/04/03 07:54:32;;;;;;;4.57;4.15;;;9.10;73.40;;;;;;4988321;28;20211;-66
2021/04/03 07:57:05;;;;;;;7.35;3.65;;;8.60;74.60;;;;;;4984043;28;20211;-66
2021/04/03 07:59:54;;;;;;;4.05;3.65;;;8.40;75.90;;;;;;4992067;28;20200;-66
2021/04/03 08:02:26;;;;;;;4.72;3.67;;;8.40;77.20;;;;;;4991031;28;20204;-66
2021/04/03 08:04:53;;;;;;;3.92;3.60;;;8.50;76.70;;;;;;4989660;28;20290;-66
2021/04/03 08:07:22;;;;;;;3.10;2.88;;;8.60;76.70;;;;;;4990382;28;20323;-66
2021/04/03 08:09:50;;;;;;;3.85;3.38;;;8.50;76.30;;;;;;4988657;28;20266;-66
2021/04/03 08:12:19;;;;;;;4.18;3.00;;;8.20;76.70;;;;;;4980436;28;20242;-66
2021/04/03 08:14:51;;;;;;;4.93;3.03;;;8.20;75.90;;;;;;4987344;28;20239;-68
2021/04/03 08:17:22;;;;;;;3.67;2.92;;;8.10;75.30;;;;;;4982886;28;20661;-68
2021/04/03 08:19:49;;;;;;;3.95;3.55;;;8.10;78.10;;;;;;4987006;28;21517;-68
2021/04/03 08:22:16;;;;;;;3.30;3.00;;;7.80;77.90;;;;;;4987631;28;20296;-69
2021/04/03 08:24:55;;;;;;;3.33;2.97;;;7.80;78.20;;;;;;4987502;28;20673;-68
2021/04/03 08:27:35;;;;;;;3.47;3.17;;;7.70;77.50;;;;;;4986651;28;20431;-69
2021/04/03 08:30:20;;;;;;;5.57;3.50;;;7.80;79.10;;;;;;4982751;28;20211;-68
2021/04/03 08:33:05;;;;;;;4.90;3.22;;;7.90;78.20;;;;;;4989552;28;20247;-69
2021/04/03 08:35:32;;;;;;;5.10;3.80;;;7.90;78.30;;;;;;4983742;28;20212;-68
2021/04/03 08:38:19;;;;;;;3.00;2.80;;;7.80;78.60;;;;;;4983606;28;20212;-68
2021/04/03 08:40:47;;;;;;;3.33;3.03;;;7.70;78.40;;;;;;4982789;28;20299;-68
2021/04/03 08:43:26;;;;;;;4.85;4.30;;;7.70;78.70;;;;;;4987425;28;20247;-68
2021/04/03 08:45:53;;;;;;;3.95;3.55;;;8.00;80.30;;;;;;4986950;28;20231;-68
2021/04/03 08:48:20;;;;;;;4.05;3.65;;;8.10;78.30;;;;;;4987869;28;20223;-68
2021/04/03 08:50:49;;;;;;;8.95;4.47;;;8.00;78.60;;;;;;4986976;28;20211;-68
2021/04/03 08:53:16;;;;;;;5.57;4.65;;;8.20;78.20;;;;;;4982298;28;20321;-69
2021/04/03 08:55:43;;;;;;;3.60;3.22;;;8.20;76.40;;;;;;4983893;28;20218;-69
2021/04/03 08:58:10;;;;;;;4.25;3.00;;;8.40;78.20;;;;;;4987949;28;20705;-68
2021/04/03 09:00:37;;;;;;;4.70;3.10;;;8.50;76.30;;;;;;4987691;28;20291;-69
2021/04/03 09:03:03;;;;;;;3.70;3.28;;;8.50;75.20;;;;;;4987287;28;20204;-68
2021/04/03 09:05:30;;;;;;;4.70;3.50;;;8.40;75.60;;;;;;4986495;28;20728;-68
2021/04/03 09:07:57;;;;;;;3.38;2.80;;;8.50;76.90;;;;;;4983980;28;20216;-67
2021/04/03 09:10:26;;;;;;;4.28;3.25;;;8.40;76.40;;;;;;4987866;28;20332;-68
2021/04/03 09:12:53;;;;;;;3.30;3.00;;;8.60;75.00;;;;;;4986848;28;20232;-68
2021/04/03 09:15:29;;;;;;;5.80;3.03;;;9.00;74.00;;;;;;4983670;28;20214;-68
2021/04/03 09:17:57;;;;;;;3.30;3.00;;;9.50;73.60;;;;;;4984488;28;20242;-68
2021/04/03 09:20:26;;;;;;;3.88;2.85;;;10.40;70.80;;;;;;4986117;28;20207;-68
2021/04/03 09:22:55;;;;;;;2.92;2.72;;;11.60;66.20;;;;;;4986834;28;20196;-68
2021/04/03 09:25:29;;;;;;;4.15;3.08;;;11.30;64.50;;;;;;4985311;28;20215;-68
2021/04/03 09:28:03;;;;;;;3.70;2.63;;;12.20;64.40;;;;;;4985847;28;20218;-68
2021/04/03 09:30:38;;;;;;;3.47;2.22;;;12.70;62.60;;;;;;4987078;28;20207;-69
2021/04/03 09:33:19;;;;;;;3.40;2.95;;;13.40;60.80;;;;;;4986551;28;20235;-68
2021/04/03 09:35:45;;;;;;;2.97;2.65;;;13.70;58.80;;;;;;4985361;28;20218;-68
2021/04/03 09:38:13;;;;;;;2.67;2.47;;;13.50;59.30;;;;;;4987191;28;20510;-68
2021/04/03 09:40:42;;;;;;;6.28;3.05;;;13.10;58.50;;;;;;4986740;28;20278;-69
2021/04/03 09:43:10;;;;;;;4.53;2.90;;;12.50;60.20;;;;;;4986784;28;20204;-68
2021/04/03 09:45:37;;;;;;;4.78;2.50;;;12.30;60.00;;;;;;4984400;28;20200;-68
2021/04/03 09:48:04;;;;;;;3.03;2.78;;;12.70;58.80;;;;;;4985882;28;20211;-69
2021/04/03 09:50:31;;;;;;;3.05;2.80;;;12.80;58.50;;;;;;4986360;28;20327;-68
2021/04/03 09:53:05;;;;;;;2.42;2.17;;;12.60;60.30;;;;;;4983196;28;20270;-69
2021/04/03 09:55:31;;;;;;;2.50;2.30;;;12.90;58.80;;;;;;4985730;28;20257;-68
2021/04/03 09:57:58;;;;;;;4.88;2.30;;;13.40;57.10;;;;;;4985921;28;20323;-69
2021/04/03 10:00:25;;;;;;;2.58;2.38;;;13.00;57.50;;;;;;4986828;28;20203;-68
2021/04/03 10:02:52;;;;;;;3.50;2.55;;;13.10;57.30;;;;;;4986253;28;20207;-68
2021/04/03 10:05:18;;;;;;;2.47;2.20;;;12.60;57.80;;;;;;4979570;28;20754;-69
2021/04/03 10:07:44;;;;;;;2.72;2.40;;;12.50;57.40;;;;;;4980904;28;20266;-68
2021/04/03 10:10:11;;;;;;;3.55;2.90;;;12.80;58.50;;;;;;4985848;28;20770;-68
2021/04/03 10:12:37;;;;;;;3.50;2.72;;;13.30;58.80;;;;;;4986356;28;20238;-69
2021/04/03 10:15:07;;;;;;;3.00;2.70;;;13.30;57.30;;;;;;4977380;28;20279;-69
2021/04/03 10:17:33;;;;;;;3.72;3.00;;;13.50;57.70;;;;;;4987205;28;20208;-68
2021/04/03 10:19:59;;;;;;;2.88;2.67;;;13.30;57.60;;;;;;4983456;28;20630;-69
2021/04/03 10:22:26;;;;;;;2.72;2.45;;;13.40;57.70;;;;;;4986646;28;20262;-68
2021/04/03 10:24:54;;;;;;;3.25;2.85;;;13.30;57.60;;;;;;4985841;28;20219;-67
2021/04/03 10:27:20;;;;;;;2.50;2.10;;;12.90;57.80;;;;;;4986100;28;20294;-67
2021/04/03 10:29:46;;;;;;;4.43;2.38;;;12.80;58.20;;;;;;4986219;28;20215;-68
2021/04/03 10:32:14;;;;;;;4.60;2.63;;;13.20;57.50;;;;;;4986226;28;20236;-68
2021/04/03 10:34:40;;;;;;;3.90;3.60;;;13.50;58.90;;;;;;4984720;28;20665;-68
2021/04/03 10:37:07;;;;;;;3.10;2.80;;;13.20;61.00;;;;;;4981039;28;20212;-68
2021/04/03 10:39:33;;;;;;;3.70;2.80;;;13.40;58.60;;;;;;4980211;28;20761;-69
2021/04/03 10:41:59;;;;;;;2.80;2.60;;;13.50;58.10;;;;;;4986294;28;20322;-69
2021/04/03 10:44:26;;;;;;;4.18;2.97;;;13.40;55.60;;;;;;4983166;28;20199;-68
2021/04/03 10:46:53;;;;;;;4.03;2.90;;;13.40;57.40;;;;;;4986454;28;20202;-68
2021/04/03 10:49:21;;;;;;;3.20;2.90;;;13.50;59.30;;;;;;4984915;28;20283;-68
2021/04/03 10:51:48;;;;;;;7.10;4.63;;;13.30;60.60;;;;;;4984800;28;20326;-68
2021/04/03 10:54:17;;;;;;;3.00;2.80;;;12.70;61.70;;;;;;4985793;28;20254;-69
2021/04/03 10:56:43;;;;;;;3.28;2.97;;;12.90;62.00;;;;;;4983556;28;20631;-68
2021/04/03 10:59:09;;;;;;;3.92;3.63;;;12.80;59.80;;;;;;4986500;28;20219;-68
2021/04/03 11:01:36;;;;;;;3.90;3.50;;;13.00;62.50;;;;;;4989720;28;20295;-68
2021/04/03 11:04:02;;;;;;;3.35;3.05;;;12.10;60.80;;;;;;4985283;28;20207;-70
2021/04/03 11:06:29;;;;;;;3.70;3.10;;;12.30;64.00;;;;;;4980894;28;20196;-70
2021/04/03 11:08:55;;;;;;;5.25;2.92;;;12.20;62.50;;;;;;4987439;28;20207;-68
2021/04/03 11:11:22;;;;;;;6.43;3.08;;;11.80;61.40;;;;;;4987129;28;20866;-68
2021/04/03 11:13:51;;;;;;;3.72;2.97;;;11.30;62.90;;;;;;4988073;28;20309;-68
2021/04/03 11:16:18;;;;;;;3.45;3.15;;;10.80;63.20;;;;;;4985170;28;20299;-68
2021/04/03 11:18:44;;;;;;;3.58;3.28;;;10.60;63.60;;;;;;4988583;28;20299;-68
2021/04/03 11:21:11;;;;;;;3.95;3.50;;;10.30;62.90;;;;;;4989258;28;20199;-68
2021/04/03 11:23:38;;;;;;;5.03;3.30;;;10.50;63.50;;;;;;4989488;28;20212;-70
2021/04/03 11:26:05;;;;;;;4.05;3.25;;;10.60;64.30;;;;;;4987480;28;20681;-68
2021/04/03 11:28:31;;;;;;;4.10;3.53;;;10.50;63.90;;;;;;4989693;28;20302;-67
2021/04/03 11:30:58;;;;;;;5.47;2.95;;;10.50;64.60;;;;;;4989562;28;20238;-68
2021/04/03 11:33:26;;;;;;;3.85;3.47;;;10.70;62.80;;;;;;4988435;28;20953;-68
2021/04/03 11:35:52;;;;;;;3.80;2.88;;;10.50;61.20;;;;;;4985681;28;20743;-68
2021/04/03 11:38:20;;;;;;;5.90;2.45;;;10.40;62.50;;;;;;4988581;28;20200;-67
2021/04/03 11:40:47;;;;;;;5.32;3.45;;;10.30;62.80;;;;;;4987426;28;20750;-68
2021/04/03 11:43:14;;;;;;;3.78;3.25;;;10.40;63.20;;;;;;4985766;28;20299;-68
2021/04/03 11:45:40;;;;;;;5.28;3.00;;;10.50;61.20;;;;;;4986811;28;20254;-68
2021/04/03 11:48:07;;;;;;;4.95;2.45;;;10.80;59.80;;;;;;4986855;28;20295;-68
2021/04/03 11:50:35;;;;;;;5.10;2.70;;;11.50;59.20;;;;;;4990505;28;20232;-68
2021/04/03 11:53:01;;;;;;;4.07;2.80;;;11.60;57.10;;;;;;4988459;28;20759;-68
2021/04/03 11:55:27;;;;;;;4.40;2.67;;;11.10;58.60;;;;;;4983731;28;20208;-68
2021/04/03 11:57:55;;;;;;;4.25;3.00;;;10.60;60.30;;;;;;4988013;28;20286;-67
2021/04/03 12:00:22;;;;;;;3.30;3.00;;;10.50;61.60;;;;;;4987710;28;20302;-67
2021/04/03 12:02:49;;;;;;;2.67;2.47;;;10.10;61.80;;;;;;4988686;28;20577;-68
2021/04/03 12:05:16;;;;;;;3.08;2.78;;;10.00;64.10;;;;;;4987427;28;20210;-68
2021/04/03 12:07:43;;;;;;;4.28;3.88;;;10.00;62.90;;;;;;4987361;28;20637;-68
2021/04/03 12:10:12;;;;;;;5.10;2.78;;;9.90;64.50;;;;;;4987506;28;20204;-68
2021/04/03 12:12:39;;;;;;;3.90;3.60;;;10.10;61.90;;;;;;4988368;28;21609;-67
2021/04/03 12:15:08;;;;;;;4.47;3.65;;;9.90;63.10;;;;;;4987642;28;20542;-68
2021/04/03 12:17:35;;;;;;;3.60;3.30;;;10.00;62.90;;;;;;4987806;28;20222;-68
2021/04/03 12:20:02;;;;;;;4.97;2.70;;;10.60;64.60;;;;;;4987957;28;21068;-68
2021/04/03 12:22:29;;;;;;;2.35;2.17;;;11.10;61.70;;;;;;4987644;28;20204;-68
2021/04/03 12:24:55;;;;;;;3.78;2.20;;;11.90;59.20;;;;;;4988123;28;20282;-68
2021/04/03 12:27:23;;;;;;;2.83;2.28;;;12.00;57.60;;;;;;4987955;28;20219;-68
2021/04/03 12:29:50;;;;;;;2.90;2.65;;;12.60;56.40;;;;;;4987988;28;20203;-68
2021/04/03 12:32:17;;;;;;;2.85;1.85;;;12.60;55.40;;;;;;4987702;28;20204;-68
2021/04/03 12:34:44;;;;;;;2.47;2.28;;;12.50;54.90;;;;;;4984404;28;20303;-69
2021/04/03 12:37:16;;;;;;;2.50;2.30;;;11.80;55.20;;;;;;4987152;28;20250;-68
2021/04/03 12:39:42;;;;;;;2.78;2.47;;;11.40;56.80;;;;;;4987052;28;20208;-67
2021/04/03 12:42:09;;;;;;;3.13;2.47;;;11.30;57.70;;;;;;4987287;28;20295;-67
2021/04/03 12:44:36;;;;;;;3.35;2.20;;;11.10;57.50;;;;;;4986652;28;20206;-68
2021/04/03 12:47:02;;;;;;;3.85;2.75;;;11.10;58.00;;;;;;4993580;28;20199;-67
2021/04/03 12:49:30;;;;;;;2.78;2.50;;;11.20;58.90;;;;;;4988282;28;20748;-67
2021/04/03 12:51:56;;;;;;;2.67;2.42;;;11.40;58.50;;;;;;4986685;28;20208;-67
2021/04/03 12:54:24;;;;;;;2.40;1.70;;;11.50;58.70;;;;;;4982419;28;20239;-68
2021/04/03 12:56:51;;;;;;;3.22;2.85;;;11.70;57.40;;;;;;4985686;28;20661;-67
2021/04/03 12:59:17;;;;;;;2.72;2.50;;;11.90;56.50;;;;;;4985292;28;20208;-68
2021/04/03 13:01:44;;;;;;;2.25;2.15;;;11.90;57.00;;;;;;4985545;28;20295;-67
2021/04/03 13:04:11;;;;;;;3.30;2.35;;;12.00;57.40;;;;;;4984974;28;20208;-67
2021/04/03 13:06:38;;;;;;;3.17;2.30;;;11.90;56.40;;;;;;4983555;28;20691;-68
2021/04/03 13:09:06;;;;;;;3.50;2.22;;;11.70;55.10;;;;;;4985582;28;20203;-68
2021/04/03 13:11:33;;;;;;;2.08;1.73;;;11.60;56.60;;;;;;4985695;28;20307;-67
2021/04/03 13:13:59;;;;;;;3.05;2.35;;;11.60;56.90;;;;;;4984974;28;20231;-67
2021/04/03 13:16:25;;;;;;;2.53;2.33;;;11.50;57.20;;;;;;4983400;28;20203;-67
2021/04/03 13:18:52;;;;;;;4.43;2.50;;;11.70;56.90;;;;;;4986535;28;20206;-67
2021/04/03 13:21:18;;;;;;;3.10;2.40;;;11.80;59.00;;;;;;4985817;28;20199;-68
2021/04/03 13:23:46;;;;;;;2.35;2.03;;;11.50;57.20;;;;;;4986003;28;20204;-68
2021/04/03 13:26:13;;;;;;;2.28;2.08;;;11.30;56.10;;;;;;4984970;28;20956;-71
2021/04/03 13:28:40;;;;;;;5.43;2.38;;;11.30;57.10;;;;;;4985092;28;20208;-68
2021/04/03 13:31:06;;;;;;;3.05;2.40;;;11.60;57.30;;;;;;4985416;28;20211;-67
2021/04/03 13:33:33;;;;;;;3.40;3.08;;;11.90;57.10;;;;;;4984926;28;20317;-68
2021/04/03 13:35:59;;;;;;;3.00;2.15;;;12.10;55.50;;;;;;4984007;28;20218;-68
2021/04/03 13:38:26;;;;;;;9.45;5.05;;;12.00;55.20;;;;;;4985384;28;20691;-68
2021/04/03 13:40:53;;;;;;;8.25;5.20;;;11.80;54.70;;;;;;4984975;28;20203;-68
2021/04/03 13:43:19;;;;;;;5.50;2.40;;;11.60;54.20;;;;;;4985799;28;20250;-68
2021/04/03 13:45:46;;;;;;;4.40;2.60;;;11.50;56.90;;;;;;4983895;28;20765;-67
2021/04/03 13:48:12;;;;;;;2.40;2.20;;;11.60;55.90;;;;;;4985211;28;20262;-67
2021/04/03 13:50:39;;;;;;;3.03;2.25;;;11.80;54.90;;;;;;4984180;28;20239;-67
2021/04/03 13:53:06;;;;;;;5.88;5.38;;;11.80;55.90;;;;;;4986134;28;20235;-68
2021/04/03 13:55:32;;;;;;;3.92;3.08;;;11.80;55.00;;;;;;4983998;28;20259;-68
2021/04/03 13:57:59;;;;;;;4.80;4.30;;;11.40;53.20;;;;;;4986261;28;20258;-69
2021/04/03 14:00:28;;;;;;;4.47;3.35;;;11.00;53.60;;;;;;4984307;28;20196;-68
2021/04/03 14:02:54;;;;;;;7.78;3.25;;;11.10;54.70;;;;;;4983460;28;20212;-68
2021/04/03 14:05:21;;;;;;;3.85;3.03;;;10.90;54.90;;;;;;4984066;28;20200;-68
2021/04/03 14:07:47;;;;;;;2.60;2.40;;;10.70;54.40;;;;;;4984508;28;20200;-68
2021/04/03 14:10:14;;;;;;;4.35;2.83;;;10.60;54.70;;;;;;4983274;28;20224;-68
2021/04/03 14:12:40;;;;;;;4.32;3.20;;;10.60;54.80;;;;;;4985741;28;20703;-68
2021/04/03 14:15:09;;;;;;;3.83;2.80;;;10.90;54.20;;;;;;4984743;28;20240;-68
2021/04/03 14:17:37;;;;;;;3.67;2.80;;;11.10;55.20;;;;;;4986380;28;20257;-68
2021/04/03 14:20:04;;;;;;;3.08;2.88;;;11.20;56.20;;;;;;4983692;28;20204;-68
2021/04/03 14:22:31;;;;;;;3.30;3.03;;;11.40;57.10;;;;;;4985852;28;20200;-69
2021/04/03 14:24:57;;;;;;;2.17;1.98;;;11.70;56.30;;;;;;4985657;28;20314;-68
2021/04/03 14:27:24;;;;;;;11.13;8.90;;;11.80;56.00;;;;;;4986397;28;20283;-68
2021/04/03 14:29:50;;;;;;;2.20;2.00;;;11.80;54.70;;;;;;4985089;28;20254;-67
2021/04/03 14:32:17;;;;;;;1.90;1.80;;;11.60;55.50;;;;;;4986168;28;20199;-68
2021/04/03 14:34:44;;;;;;;2.92;2.33;;;11.60;56.70;;;;;;4986945;28;20702;-68
2021/04/03 14:37:10;;;;;;;2.40;2.20;;;11.70;57.50;;;;;;4989735;28;20207;-68
2021/04/03 14:39:36;;;;;;;2.67;2.45;;;11.70;55.60;;;;;;4989905;28;20211;-68
2021/04/03 14:42:03;;;;;;;2.10;2.00;;;11.40;55.10;;;;;;4990130;28;20219;-68
2021/04/03 14:44:30;;;;;;;5.47;4.05;;;11.30;55.90;;;;;;4989617;28;20692;-68
2021/04/03 14:46:56;;;;;;;3.30;2.67;;;11.30;54.60;;;;;;4989857;28;20244;-68
2021/04/03 14:49:23;;;;;;;37.05;25.73;;;11.10;57.00;;;;;;4989924;28;20199;-68
2021/04/03 14:51:50;;;;;;;16.38;14.45;;;11.10;55.40;;;;;;4989333;28;20208;-68
2021/04/03 14:54:16;;;;;;;14.05;9.93;;;11.10;55.60;;;;;;4991903;28;20661;-68
2021/04/03 14:56:42;;;;;;;8.68;7.22;;;11.10;55.90;;;;;;4986662;28;22657;-68
2021/04/03 14:59:09;;;;;;;10.18;8.00;;;11.20;56.20;;;;;;4989121;28;20350;-68
2021/04/03 15:01:37;;;;;;;12.07;10.82;;;11.20;56.30;;;;;;4990054;28;20272;-68
2021/04/03 15:04:03;;;;;;;6.78;6.18;;;11.60;56.40;;;;;;4985288;28;20207;-68
2021/04/03 15:06:30;;;;;;;4.63;3.92;;;11.50;54.30;;;;;;4988664;28;20730;-68
2021/04/03 15:08:57;;;;;;;2.47;2.20;;;11.60;54.60;;;;;;4986807;28;20208;-69
2021/04/03 15:11:24;;;;;;;2.88;1.98;;;11.60;56.00;;;;;;4989895;28;20200;-69
2021/04/03 15:13:50;;;;;;;2.72;2.50;;;11.70;54.30;;;;;;4989911;28;20326;-69
2021/04/03 15:16:16;;;;;;;4.43;3.55;;;11.70;54.60;;;;;;4988382;28;20299;-69
2021/04/03 15:18:43;;;;;;;2.08;1.90;;;11.60;52.60;;;;;;4989777;28;20342;-66
2021/04/03 15:21:09;;;;;;;7.00;6.30;;;11.40;55.20;;;;;;4989118;28;20309;-66
2021/04/03 15:23:36;;;;;;;2.90;2.70;;;11.20;55.10;;;;;;4989387;28;20732;-67
2021/04/03 15:26:03;;;;;;;2.60;2.22;;;11.00;55.20;;;;;;4988201;28;20301;-68
2021/04/03 15:28:29;;;;;;;2.60;2.13;;;10.80;55.50;;;;;;4988924;28;20214;-67
2021/04/03 15:30:57;;;;;;;7.03;6.43;;;10.70;55.50;;;;;;4989412;28;20251;-68
2021/04/03 15:33:23;;;;;;;11.50;10.30;;;10.80;55.30;;;;;;4988958;28;20326;-68
2021/04/03 15:35:49;;;;;;;11.15;7.80;;;10.80;54.80;;;;;;4984843;28;20274;-67
2021/04/03 15:38:16;;;;;;;4.78;3.60;;;11.00;54.80;;;;;;4989362;28;20274;-67
2021/04/03 15:40:43;;;;;;;7.15;6.45;;;10.80;53.90;;;;;;4989317;28;20243;-68
2021/04/03 15:43:09;;;;;;;4.40;4.00;;;10.80;54.40;;;;;;4989833;28;20240;-69
2021/04/03 15:45:36;;;;;;;5.68;5.20;;;10.90;53.50;;;;;;4986811;28;20203;-68
2021/04/03 15:48:02;;;;;;;7.93;7.13;;;11.20;53.60;;;;;;4979859;28;20258;-69
2021/04/03 15:50:29;;;;;;;2.30;2.10;;;11.40;52.80;;;;;;4988910;28;20207;-68
2021/04/03 15:52:55;;;;;;;1.83;1.40;;;11.40;52.90;;;;;;4986522;28;20227;-69
2021/04/03 15:55:22;;;;;;;2.00;1.65;;;11.30;52.40;;;;;;4985038;28;20200;-68
2021/04/03 15:57:49;;;;;;;4.70;1.80;;;11.40;53.80;;;;;;4988124;28;20252;-67
2021/04/03 16:00:17;;;;;;;2.28;2.05;;;11.60;54.30;;;;;;4987982;28;20207;-67
2021/04/03 16:02:43;;;;;;;2.05;1.67;;;11.60;51.90;;;;;;4988525;28;20757;-68
2021/04/03 16:05:10;;;;;;;2.20;2.00;;;11.70;53.50;;;;;;4988363;28;20754;-67
2021/04/03 16:07:37;;;;;;;1.92;1.83;;;11.60;53.90;;;;;;4985531;28;20203;-68
2021/04/03 16:10:04;;;;;;;2.28;2.08;;;11.50;54.30;;;;;;4988921;28;20203;-68
2021/04/03 16:12:31;;;;;;;3.70;2.85;;;11.40;53.30;;;;;;4988401;28;20234;-68
2021/04/03 16:15:01;;;;;;;3.38;2.92;;;11.30;53.10;;;;;;4988643;28;20199;-70
2021/04/03 16:17:27;;;;;;;2.40;2.13;;;11.20;54.10;;;;;;4985935;28;20787;-68
2021/04/03 16:19:53;;;;;;;3.22;2.80;;;11.10;53.50;;;;;;4984074;28;20279;-68
2021/04/03 16:22:20;;;;;;;3.70;2.90;;;11.00;54.00;;;;;;4985687;28;20295;-68
2021/04/03 16:24:46;;;;;;;2.85;2.60;;;10.80;54.80;;;;;;4988425;28;20284;-68
2021/04/03 16:27:13;;;;;;;1.95;1.85;;;10.70;53.90;;;;;;4990019;28;20207;-67